Time;durP1;ratioP1;P1;durP2;ratioP2;P2;SDS_P1;SDS_P2;PMS_P1;PMS_P2;Temp;Humidity;BMP_temperature;BMP_pressure;BME280_temperature;BME280_humidity;BME280_pressure;Samples;Min_cycle;Max_cycle;Signal;HPM_P1;HPM_P2
2022/01/08 00:00:24;;;;;;;6.83;4.77;;;0.00;99.90;;;;;;4939930;29;20206;-78
2022/01/08 00:02:51;;;;;;;5.83;3.80;;;0.10;99.90;;;;;;4940205;29;20182;-78
2022/01/08 00:05:17;;;;;;;6.13;4.57;;;0.00;99.90;;;;;;4939588;29;20203;-79
2022/01/08 00:07:42;;;;;;;6.27;4.60;;;0.20;99.90;;;;;;4939013;29;20179;-79
2022/01/08 00:10:08;;;;;;;7.27;4.80;;;0.00;99.90;;;;;;4939883;29;20263;-78
2022/01/08 00:12:34;;;;;;;7.20;4.30;;;0.10;99.90;;;;;;4939545;29;20179;-78
2022/01/08 00:14:59;;;;;;;5.77;3.90;;;0.10;99.90;;;;;;4939086;29;20250;-79
2022/01/08 00:17:25;;;;;;;5.67;4.30;;;0.10;99.90;;;;;;4939012;29;20182;-78
2022/01/08 00:19:51;;;;;;;5.73;4.30;;;0.20;99.90;;;;;;4939258;29;20202;-79
2022/01/08 00:22:16;;;;;;;6.27;4.40;;;0.20;99.90;;;;;;4939658;29;20175;-78
2022/01/08 00:24:42;;;;;;;4.80;4.30;;;0.20;99.90;;;;;;4938773;29;20286;-79
2022/01/08 00:27:07;;;;;;;5.87;4.10;;;0.00;99.90;;;;;;4940351;29;20167;-80
2022/01/08 00:29:33;;;;;;;7.40;4.80;;;-0.10;99.90;;;;;;4939511;29;20548;-79
2022/01/08 00:31:58;;;;;;;5.30;4.13;;;-0.20;99.90;;;;;;4939490;29;20684;-79
2022/01/08 00:34:24;;;;;;;6.67;4.33;;;-0.10;99.90;;;;;;4939220;29;20218;-80
2022/01/08 00:36:50;;;;;;;5.70;4.50;;;0.20;99.90;;;;;;4940313;29;20187;-81
2022/01/08 00:39:15;;;;;;;5.90;4.53;;;-0.10;99.90;;;;;;4941000;29;20186;-80
2022/01/08 00:41:41;;;;;;;7.57;4.70;;;0.10;99.90;;;;;;4940686;29;20183;-81
2022/01/08 00:44:06;;;;;;;5.70;4.23;;;0.20;99.90;;;;;;4940338;29;20254;-80
2022/01/08 00:46:32;;;;;;;5.47;4.37;;;0.50;99.90;;;;;;4940269;29;20343;-80
2022/01/08 00:48:57;;;;;;;5.57;4.40;;;0.60;94.80;;;;;;4941057;29;20186;-82
2022/01/08 00:51:23;;;;;;;6.03;4.37;;;0.50;97.10;;;;;;4940180;29;20187;-80
2022/01/08 00:53:48;;;;;;;6.90;4.50;;;0.60;94.80;;;;;;4940814;29;20340;-80
2022/01/08 00:56:14;;;;;;;9.37;4.37;;;0.60;99.40;;;;;;4952136;29;20195;-82
2022/01/08 00:58:41;;;;;;;7.40;3.83;;;0.70;99.90;;;;;;4958197;29;20233;-79
2022/01/08 01:01:07;;;;;;;4.43;3.50;;;0.70;87.80;;;;;;4958355;29;20186;-81
2022/01/08 01:03:33;;;;;;;7.40;3.97;;;0.90;29.50;;;;;;4958292;29;20175;-80
2022/01/08 01:05:59;;;;;;;7.57;3.50;;;1.00;1.00;;;;;;4938758;29;20304;-80
2022/01/08 01:08:24;;;;;;;4.10;3.13;;;1.10;1.00;;;;;;4938101;29;20671;-81
2022/01/08 01:10:50;;;;;;;5.83;3.80;;;1.20;1.00;;;;;;4937984;29;20621;-79
2022/01/08 01:13:15;;;;;;;4.97;3.10;;;1.20;1.00;;;;;;4937290;29;20214;-78
2022/01/08 01:15:41;;;;;;;5.07;3.47;;;1.20;1.00;;;;;;4937394;29;20723;-79
2022/01/08 01:18:08;;;;;;;3.97;2.97;;;1.30;1.00;;;;;;4937963;29;20255;-77
2022/01/08 01:20:34;;;;;;;4.17;3.10;;;1.30;1.00;;;;;;4941811;29;20262;-80
2022/01/08 01:23:02;;;;;;;4.50;3.30;;;1.30;1.00;;;;;;4941980;29;20210;-79
2022/01/08 01:25:38;;;;;;;5.57;3.13;;;1.40;1.00;;;;;;4941748;29;20747;-78
2022/01/08 01:41:23;;;;;;;5.20;3.50;;;1.10;1.00;;;;;;4942231;29;20182;-78
2022/01/08 01:49:19;;;;;;;5.00;3.73;;;1.20;1.00;;;;;;4942116;29;20258;-80
2022/01/08 01:51:45;;;;;;;4.70;3.00;;;1.30;1.00;;;;;;4925012;29;20179;-78
2022/01/08 01:54:11;;;;;;;7.00;3.23;;;1.30;1.00;;;;;;4941850;29;20314;-82
2022/01/08 01:56:37;;;;;;;4.40;3.53;;;1.30;1.00;;;;;;4941679;29;20206;-80
2022/01/08 01:59:03;;;;;;;4.97;3.87;;;1.30;1.00;;;;;;4941643;29;20184;-80
2022/01/08 02:01:29;;;;;;;6.80;3.77;;;1.20;14.10;;;;;;4940637;29;20201;-80
2022/01/08 02:03:54;;;;;;;3.60;3.13;;;1.20;15.70;;;;;;4941115;29;20274;-81
2022/01/08 02:06:20;;;;;;;4.73;3.50;;;1.30;1.00;;;;;;4940086;29;20192;-79
2022/01/08 02:08:46;;;;;;;5.37;3.70;;;1.30;1.00;;;;;;4940813;29;20183;-78
2022/01/08 02:11:12;;;;;;;3.60;3.10;;;1.40;1.00;;;;;;4942307;29;20275;-79
2022/01/08 02:13:37;;;;;;;3.40;2.63;;;1.50;1.00;;;;;;4941651;29;20219;-80
2022/01/08 02:16:06;;;;;;;3.70;2.93;;;1.60;1.00;;;;;;4941263;29;20195;-79
2022/01/08 02:18:31;;;;;;;4.83;2.97;;;1.60;1.00;;;;;;4942835;29;20210;-79
2022/01/08 02:20:59;;;;;;;3.77;2.90;;;1.80;1.00;;;;;;4942790;29;20585;-79
2022/01/08 02:23:26;;;;;;;4.37;2.70;;;1.80;1.00;;;;;;4942255;29;20197;-81
2022/01/08 02:26:00;;;;;;;3.13;2.50;;;1.80;1.00;;;;;;4942423;29;20202;-80
2022/01/08 02:28:26;;;;;;;4.53;2.73;;;1.90;1.00;;;;;;4942335;29;20186;-80
2022/01/08 02:30:51;;;;;;;4.00;2.47;;;2.00;1.00;;;;;;4941781;29;20179;-81
2022/01/08 02:33:17;;;;;;;4.73;2.90;;;2.00;1.00;;;;;;4942722;29;20210;-81
2022/01/08 02:35:42;;;;;;;3.27;2.50;;;2.10;1.00;;;;;;4925183;29;20851;-80
2022/01/08 02:38:08;;;;;;;5.07;2.67;;;2.10;1.00;;;;;;4942429;29;20175;-79
2022/01/08 02:40:36;;;;;;;3.70;2.77;;;2.20;1.00;;;;;;4943378;29;20219;-80
2022/01/08 02:43:04;;;;;;;4.13;2.50;;;2.20;1.00;;;;;;4925907;29;20171;-80
2022/01/08 02:45:31;;;;;;;4.50;2.67;;;2.10;1.00;;;;;;4941354;29;20693;-80
2022/01/08 02:47:57;;;;;;;3.67;2.60;;;2.10;1.00;;;;;;4941433;29;20176;-80
2022/01/08 02:50:24;;;;;;;3.77;2.63;;;2.10;1.00;;;;;;4941189;29;20172;-80
2022/01/08 02:52:50;;;;;;;4.90;2.83;;;2.00;1.00;;;;;;4950615;29;20183;-80
2022/01/08 02:55:19;;;;;;;4.07;2.70;;;2.10;1.00;;;;;;4948975;29;20205;-79
2022/01/08 02:57:45;;;;;;;4.70;3.10;;;2.20;1.00;;;;;;4931302;29;20190;-78
2022/01/08 03:00:14;;;;;;;3.20;2.70;;;2.10;1.00;;;;;;4948607;29;20195;-78
2022/01/08 03:02:44;;;;;;;3.47;2.70;;;2.10;1.00;;;;;;4943706;29;20171;-78
2022/01/08 03:05:11;;;;;;;4.10;2.87;;;2.10;1.00;;;;;;4939139;29;20207;-79
2022/01/08 03:07:38;;;;;;;5.03;3.00;;;2.20;1.00;;;;;;4939630;29;20175;-77
2022/01/08 03:10:05;;;;;;;4.23;3.07;;;2.10;1.00;;;;;;4939418;29;20195;-79
2022/01/08 03:12:31;;;;;;;3.37;2.43;;;2.10;1.00;;;;;;4939296;29;20175;-78
2022/01/08 03:14:56;;;;;;;2.93;2.63;;;2.20;1.00;;;;;;4938991;29;20279;-80
2022/01/08 03:17:22;;;;;;;4.37;2.77;;;2.20;1.00;;;;;;4940333;29;20243;-79
2022/01/08 03:19:51;;;;;;;3.67;2.87;;;2.20;1.00;;;;;;4939466;29;20644;-78
2022/01/08 03:22:17;;;;;;;3.10;2.40;;;2.30;1.00;;;;;;4939936;29;20226;-78
2022/01/08 03:24:43;;;;;;;5.47;2.90;;;2.20;1.00;;;;;;4938819;29;20199;-78
2022/01/08 03:27:09;;;;;;;3.77;2.70;;;2.20;1.00;;;;;;4938356;29;20190;-78
2022/01/08 03:29:34;;;;;;;4.33;2.77;;;2.30;1.00;;;;;;4937590;29;20191;-79
2022/01/08 03:32:03;;;;;;;4.23;2.70;;;2.50;1.00;;;;;;4938511;29;20262;-79
2022/01/08 03:34:28;;;;;;;2.50;2.30;;;2.40;1.00;;;;;;4938411;29;20227;-79
2022/01/08 03:36:54;;;;;;;2.70;2.10;;;2.50;1.00;;;;;;4938189;29;20193;-79
2022/01/08 03:39:21;;;;;;;2.53;2.00;;;2.70;1.00;;;;;;4939178;29;20179;-80
2022/01/08 03:41:46;;;;;;;1.93;1.53;;;2.80;1.00;;;;;;4939757;29;20179;-78
2022/01/08 03:44:12;;;;;;;2.07;1.60;;;2.80;1.00;;;;;;4939213;29;20179;-78
2022/01/08 03:46:38;;;;;;;1.80;1.67;;;2.80;1.00;;;;;;4938274;29;20617;-81
2022/01/08 03:51:31;;;;;;;1.97;1.57;;;2.80;1.00;;;;;;4939176;29;20249;-78
2022/01/08 03:53:57;;;;;;;2.13;1.70;;;2.80;1.00;;;;;;4937878;29;20218;-80
2022/01/08 03:56:23;;;;;;;2.57;1.73;;;2.80;1.00;;;;;;4936169;29;20210;-79
2022/01/08 03:58:49;;;;;;;2.57;1.90;;;2.70;1.00;;;;;;4937926;29;20186;-78
2022/01/08 04:01:15;;;;;;;1.67;1.50;;;2.70;17.20;;;;;;4936634;29;20197;-79
2022/01/08 04:03:40;;;;;;;2.17;1.70;;;2.70;73.20;;;;;;4937820;29;20179;-77
2022/01/08 04:06:06;;;;;;;2.33;1.67;;;2.60;99.90;;;;;;4937825;29;20223;-79
2022/01/08 04:08:31;;;;;;;2.77;1.70;;;2.60;99.90;;;;;;4938875;29;20708;-78
2022/01/08 04:10:57;;;;;;;3.30;1.80;;;2.60;99.90;;;;;;4938703;29;20270;-78
2022/01/08 04:13:27;;;;;;;4.93;1.77;;;2.60;99.90;;;;;;4938739;29;20215;-78
2022/01/08 04:15:57;;;;;;;2.43;1.47;;;2.50;99.90;;;;;;4937931;29;20234;-79
2022/01/08 04:18:22;;;;;;;2.07;1.80;;;2.50;99.90;;;;;;4938967;29;20187;-80
2022/01/08 04:23:21;;;;;;;4.20;1.80;;;2.60;99.90;;;;;;4938510;29;20560;-78
2022/01/08 04:25:48;;;;;;;2.70;1.83;;;2.60;99.90;;;;;;4937729;29;20237;-79
2022/01/08 04:28:14;;;;;;;2.03;1.50;;;2.70;51.90;;;;;;4938962;29;20617;-79
2022/01/08 04:30:40;;;;;;;3.33;2.10;;;2.70;76.30;;;;;;4938578;29;20183;-76
2022/01/08 04:33:06;;;;;;;1.90;1.70;;;2.80;27.90;;;;;;4938703;29;20210;-79
2022/01/08 04:35:32;;;;;;;2.73;1.70;;;2.80;9.10;;;;;;4937915;29;20253;-79
2022/01/08 04:37:57;;;;;;;1.80;1.70;;;2.80;7.60;;;;;;4938513;29;20179;-78
2022/01/08 04:40:23;;;;;;;1.90;1.67;;;2.80;4.00;;;;;;4938503;29;20194;-78
2022/01/08 04:42:48;;;;;;;1.80;1.70;;;2.40;1.00;;;;;;4938547;29;20182;-78
2022/01/08 04:45:14;;;;;;;2.23;1.70;;;2.90;1.00;;;;;;4937975;29;20215;-78
2022/01/08 04:47:41;;;;;;;2.07;1.87;;;2.90;1.00;;;;;;4938705;29;20545;-79
2022/01/08 04:50:07;;;;;;;2.20;1.60;;;2.90;25.80;;;;;;4938469;29;20186;-78
2022/01/08 04:52:33;;;;;;;2.87;1.80;;;2.90;35.80;;;;;;4938571;29;20210;-80
2022/01/08 04:54:58;;;;;;;1.83;1.60;;;2.80;99.90;;;;;;4937720;29;20572;-79
2022/01/08 04:57:24;;;;;;;2.20;1.70;;;2.70;99.90;;;;;;4937954;29;20585;-81
2022/01/08 04:59:50;;;;;;;2.07;1.80;;;2.70;99.90;;;;;;4938229;29;20183;-80
2022/01/08 05:02:16;;;;;;;1.90;1.70;;;2.60;99.90;;;;;;4939241;29;20183;-79
2022/01/08 05:04:42;;;;;;;2.40;1.50;;;2.50;99.90;;;;;;4937968;29;20202;-80
2022/01/08 05:07:07;;;;;;;1.67;1.57;;;2.50;99.90;;;;;;4938335;29;20199;-79
2022/01/08 05:09:33;;;;;;;2.43;1.70;;;2.40;99.90;;;;;;4938933;29;20662;-78
2022/01/08 05:11:58;;;;;;;1.80;1.70;;;2.30;99.90;;;;;;4938570;29;20179;-82
2022/01/08 05:14:26;;;;;;;1.93;1.73;;;2.20;99.90;;;;;;4938223;29;20221;-80
2022/01/08 05:16:57;;;;;;;2.00;1.50;;;2.20;99.90;;;;;;4939538;29;20182;-78
2022/01/08 05:19:35;;;;;;;2.23;1.50;;;2.10;99.90;;;;;;4939653;29;20191;-81
2022/01/08 05:22:01;;;;;;;2.27;1.87;;;2.10;99.90;;;;;;4938876;29;20190;-81
2022/01/08 05:24:27;;;;;;;1.67;1.53;;;2.00;99.90;;;;;;4938480;29;20191;-79
2022/01/08 05:26:52;;;;;;;1.80;1.60;;;1.70;99.90;;;;;;4939820;29;20175;-80
2022/01/08 05:29:18;;;;;;;1.63;1.53;;;1.90;99.90;;;;;;4939686;29;20183;-79
2022/01/08 05:31:43;;;;;;;1.60;1.50;;;1.90;99.90;;;;;;4939404;29;20179;-78
2022/01/08 05:34:09;;;;;;;2.23;1.73;;;1.90;99.90;;;;;;4938902;29;20226;-79
2022/01/08 05:36:34;;;;;;;3.70;1.83;;;1.90;99.90;;;;;;4938607;29;20203;-80
2022/01/08 05:39:00;;;;;;;2.17;1.70;;;1.90;99.90;;;;;;4938805;29;20191;-79
2022/01/08 05:41:25;;;;;;;2.27;1.70;;;2.00;99.90;;;;;;4940018;29;20556;-79
2022/01/08 05:43:51;;;;;;;1.97;1.77;;;1.90;99.90;;;;;;4939226;29;20525;-82
2022/01/08 05:46:16;;;;;;;2.30;1.90;;;1.90;99.90;;;;;;4938226;29;20207;-81
2022/01/08 05:48:42;;;;;;;5.53;2.67;;;1.90;99.90;;;;;;4938668;29;20593;-79
2022/01/08 05:51:07;;;;;;;3.50;2.20;;;1.90;99.90;;;;;;4939068;29;20195;-81
2022/01/08 05:53:33;;;;;;;2.70;2.10;;;1.90;99.90;;;;;;4938786;29;20219;-80
2022/01/08 05:55:58;;;;;;;3.20;2.00;;;1.80;99.90;;;;;;4938276;29;20211;-82
2022/01/08 05:58:24;;;;;;;3.80;2.10;;;1.80;99.90;;;;;;4939282;29;20267;-82
2022/01/08 06:00:49;;;;;;;2.37;2.13;;;1.80;99.90;;;;;;4939429;29;20251;-81
2022/01/08 06:03:16;;;;;;;2.67;1.97;;;1.90;99.90;;;;;;4939434;29;20187;-80
2022/01/08 06:05:42;;;;;;;2.47;1.90;;;1.80;99.90;;;;;;4939427;29;20192;-82
2022/01/08 06:08:07;;;;;;;2.47;1.70;;;1.80;99.90;;;;;;4943017;29;20214;-82
2022/01/08 06:10:33;;;;;;;3.40;2.00;;;1.80;99.90;;;;;;4943344;29;20211;-82
2022/01/08 06:12:58;;;;;;;1.83;1.60;;;1.90;99.90;;;;;;4943167;29;20231;-82
2022/01/08 06:15:24;;;;;;;2.37;1.70;;;1.90;99.90;;;;;;4942252;29;20692;-82
2022/01/08 06:17:49;;;;;;;1.50;1.40;;;1.80;99.90;;;;;;4942900;29;20633;-82
2022/01/08 06:20:15;;;;;;;1.50;1.40;;;1.80;99.90;;;;;;4942643;29;20183;-81
2022/01/08 06:22:41;;;;;;;1.53;1.20;;;1.80;99.90;;;;;;4944531;29;20183;-82
2022/01/08 06:25:07;;;;;;;1.40;1.30;;;1.80;99.90;;;;;;4952688;29;20763;-82
2022/01/08 06:27:32;;;;;;;1.70;1.10;;;1.70;99.90;;;;;;4958205;29;20187;-83
2022/01/08 06:29:58;;;;;;;1.80;1.33;;;1.70;99.90;;;;;;4960384;29;20198;-82
2022/01/08 06:32:23;;;;;;;2.17;1.10;;;1.60;99.90;;;;;;4951562;29;20187;-81
2022/01/08 06:34:49;;;;;;;2.43;1.20;;;1.60;99.90;;;;;;4941462;29;20340;-79
2022/01/08 06:37:15;;;;;;;1.37;1.20;;;1.60;99.90;;;;;;4942190;29;20725;-78
2022/01/08 06:39:40;;;;;;;1.30;1.20;;;1.50;99.90;;;;;;4941950;29;20187;-79
2022/01/08 06:42:06;;;;;;;1.40;1.30;;;1.50;99.90;;;;;;4941556;29;20206;-79
2022/01/08 06:44:32;;;;;;;2.50;1.30;;;1.40;99.90;;;;;;4940515;29;20648;-78
2022/01/08 06:46:57;;;;;;;2.40;1.40;;;1.50;99.90;;;;;;4942100;29;20183;-79
2022/01/08 06:49:23;;;;;;;1.43;1.10;;;1.50;99.90;;;;;;4942131;29;20194;-79
2022/01/08 06:51:50;;;;;;;1.30;1.20;;;1.50;99.90;;;;;;4942034;29;20179;-80
2022/01/08 06:54:15;;;;;;;1.10;1.10;;;1.50;99.90;;;;;;4941449;29;20313;-79
2022/01/08 06:56:41;;;;;;;1.73;1.30;;;1.40;99.90;;;;;;4943209;29;20683;-78
2022/01/08 06:59:07;;;;;;;2.20;1.20;;;1.40;99.90;;;;;;4943325;29;20624;-79
2022/01/08 07:01:32;;;;;;;1.47;1.30;;;1.40;99.90;;;;;;4941181;29;20191;-78
2022/01/08 07:03:58;;;;;;;1.40;1.30;;;1.40;99.90;;;;;;4940540;29;20594;-78
2022/01/08 07:06:23;;;;;;;1.80;1.70;;;1.40;99.90;;;;;;4939601;29;20691;-80
2022/01/08 07:08:49;;;;;;;2.50;1.50;;;1.50;99.90;;;;;;4936244;29;20227;-82
2022/01/08 07:11:16;;;;;;;1.57;1.47;;;1.50;99.90;;;;;;4935122;29;20183;-82
2022/01/08 07:13:42;;;;;;;1.40;1.30;;;1.50;99.90;;;;;;4940143;29;20207;-80
2022/01/08 07:16:08;;;;;;;1.77;1.40;;;1.50;99.90;;;;;;4940380;29;20205;-82
2022/01/08 07:18:33;;;;;;;1.60;1.50;;;1.50;99.90;;;;;;4934720;29;20188;-81
2022/01/08 07:20:59;;;;;;;2.53;1.50;;;1.50;99.90;;;;;;4927164;29;20184;-80
2022/01/08 07:23:25;;;;;;;2.47;1.50;;;1.40;99.90;;;;;;4922356;29;20167;-81
2022/01/08 07:25:50;;;;;;;2.43;1.70;;;1.50;99.90;;;;;;4931658;29;20230;-81
2022/01/08 07:28:16;;;;;;;3.57;1.60;;;1.50;99.90;;;;;;4936395;29;20183;-79
2022/01/08 07:30:42;;;;;;;1.83;1.60;;;1.60;99.90;;;;;;4937578;29;20176;-79
2022/01/08 07:33:07;;;;;;;1.70;1.60;;;1.70;99.90;;;;;;4938125;29;20186;-78
2022/01/08 07:35:33;;;;;;;2.00;1.80;;;1.60;99.90;;;;;;4934080;29;20267;-79
2022/01/08 07:37:59;;;;;;;3.63;1.83;;;1.20;99.90;;;;;;4936181;29;20183;-80
2022/01/08 07:40:25;;;;;;;1.80;1.70;;;1.60;99.90;;;;;;4930413;29;20175;-78
2022/01/08 07:42:51;;;;;;;2.30;1.53;;;1.50;99.90;;;;;;4929433;29;20211;-78
2022/01/08 07:45:18;;;;;;;4.20;1.80;;;1.40;99.90;;;;;;4928121;29;20282;-78
2022/01/08 07:47:44;;;;;;;3.33;2.17;;;1.50;99.90;;;;;;4931870;29;20183;-77
2022/01/08 07:50:10;;;;;;;2.27;2.07;;;1.50;99.90;;;;;;4933294;29;20654;-78
2022/01/08 07:52:36;;;;;;;4.30;2.60;;;1.50;99.90;;;;;;4929551;29;20182;-78
2022/01/08 07:55:03;;;;;;;4.13;2.10;;;1.50;99.90;;;;;;4924003;29;20239;-79
2022/01/08 07:57:28;;;;;;;2.50;2.30;;;1.50;99.90;;;;;;4928080;29;20186;-78
2022/01/08 07:59:54;;;;;;;2.50;2.30;;;1.50;99.90;;;;;;4925300;29;20183;-78
2022/01/08 08:02:20;;;;;;;6.00;2.50;;;1.40;99.90;;;;;;4932630;29;20184;-80
2022/01/08 08:04:45;;;;;;;2.80;2.47;;;1.50;99.90;;;;;;4931311;29;20239;-79
2022/01/08 08:07:11;;;;;;;2.87;2.37;;;1.60;99.90;;;;;;4931941;29;20183;-79
2022/01/08 08:09:37;;;;;;;4.90;2.80;;;1.50;99.90;;;;;;4940306;29;20183;-79
2022/01/08 08:12:04;;;;;;;3.30;2.60;;;1.50;99.90;;;;;;4940254;29;20179;-80
2022/01/08 08:14:30;;;;;;;3.77;2.67;;;1.60;99.90;;;;;;4939958;29;20215;-79
2022/01/08 08:16:56;;;;;;;4.77;2.90;;;1.60;99.90;;;;;;4939977;29;20251;-79
2022/01/08 08:19:21;;;;;;;4.80;2.70;;;1.60;99.90;;;;;;4940677;29;20180;-82
2022/01/08 08:21:47;;;;;;;4.80;2.53;;;1.60;99.90;;;;;;4940484;29;20175;-80
2022/01/08 08:24:14;;;;;;;4.13;2.37;;;1.60;99.90;;;;;;4940403;29;20246;-79
2022/01/08 08:26:40;;;;;;;6.40;2.93;;;1.50;99.90;;;;;;4939923;29;20283;-81
2022/01/08 08:29:06;;;;;;;4.23;2.73;;;1.60;99.90;;;;;;4928896;29;20230;-80
2022/01/08 08:31:31;;;;;;;3.37;3.00;;;1.50;99.90;;;;;;4928116;29;20184;-81
2022/01/08 08:33:57;;;;;;;4.27;3.00;;;1.80;99.90;;;;;;4930519;29;20685;-81
2022/01/08 08:36:22;;;;;;;4.17;3.07;;;1.50;99.90;;;;;;4928597;29;20191;-82
2022/01/08 08:38:48;;;;;;;6.37;3.40;;;1.60;99.90;;;;;;4933065;29;20182;-81
2022/01/08 08:41:14;;;;;;;4.13;2.80;;;1.60;99.90;;;;;;4928707;29;20662;-82
2022/01/08 08:43:39;;;;;;;5.93;3.43;;;1.20;99.90;;;;;;4916215;29;20184;-80
2022/01/08 08:46:05;;;;;;;3.73;3.10;;;1.60;99.90;;;;;;4940045;29;20286;-81
2022/01/08 08:48:31;;;;;;;5.40;3.70;;;1.60;99.90;;;;;;4939477;29;20234;-80
2022/01/08 08:50:56;;;;;;;5.67;3.60;;;1.70;99.90;;;;;;4940254;29;20198;-80
2022/01/08 08:53:22;;;;;;;9.53;3.30;;;1.80;99.90;;;;;;4932436;29;20271;-79
2022/01/08 08:55:48;;;;;;;5.17;2.90;;;1.30;99.90;;;;;;4922089;29;20262;-81
2022/01/08 08:58:14;;;;;;;7.37;3.17;;;1.80;99.90;;;;;;4920110;29;20240;-79
2022/01/08 09:00:40;;;;;;;8.77;4.07;;;1.90;99.90;;;;;;4924436;29;20699;-83
2022/01/08 09:03:06;;;;;;;6.70;3.30;;;2.00;99.90;;;;;;4922566;29;20188;-83
2022/01/08 09:05:31;;;;;;;4.23;3.17;;;1.90;99.90;;;;;;4920609;29;20345;-81
2022/01/08 09:07:57;;;;;;;6.57;3.43;;;2.00;99.90;;;;;;4922035;29;20615;-80
2022/01/08 09:10:25;;;;;;;4.57;3.13;;;2.00;99.90;;;;;;4923430;29;20234;-83
2022/01/08 09:12:52;;;;;;;5.03;3.40;;;2.10;99.90;;;;;;4922968;29;20244;-82
2022/01/08 09:15:21;;;;;;;5.43;3.10;;;2.10;99.90;;;;;;4933745;29;20688;-82
2022/01/08 09:17:49;;;;;;;7.13;3.90;;;2.20;99.90;;;;;;4932351;29;20242;-79
2022/01/08 09:20:14;;;;;;;5.00;3.07;;;2.10;78.90;;;;;;4921844;29;20199;-82
2022/01/08 09:22:40;;;;;;;3.97;2.90;;;2.20;99.90;;;;;;4925034;29;20183;-85
2022/01/08 09:25:06;;;;;;;4.97;2.60;;;2.20;37.80;;;;;;4930259;29;20203;-80
2022/01/08 09:27:32;;;;;;;2.73;2.20;;;2.20;20.50;;;;;;4928145;29;20691;-80
2022/01/08 09:29:58;;;;;;;5.23;2.50;;;2.20;40.40;;;;;;4926635;29;20187;-82
2022/01/08 09:32:25;;;;;;;6.20;2.50;;;2.30;85.10;;;;;;4935824;29;20175;-77
2022/01/08 09:34:51;;;;;;;3.70;2.50;;;2.30;8.30;;;;;;4933264;29;20301;-78
2022/01/08 09:37:17;;;;;;;2.73;2.30;;;2.30;1.00;;;;;;4933660;29;20172;-79
2022/01/08 09:39:43;;;;;;;4.67;2.30;;;2.40;9.80;;;;;;4934827;29;20175;-79
2022/01/08 09:42:09;;;;;;;3.27;2.30;;;2.50;3.00;;;;;;4923653;29;20187;-78
2022/01/08 09:44:37;;;;;;;3.27;2.40;;;2.40;16.90;;;;;;4926551;29;20183;-77
2022/01/08 09:47:04;;;;;;;5.83;2.43;;;2.30;1.00;;;;;;4923316;29;20191;-79
2022/01/08 09:49:30;;;;;;;4.23;2.27;;;2.40;10.00;;;;;;4921983;29;20175;-77
2022/01/08 09:51:56;;;;;;;5.97;2.57;;;2.40;1.00;;;;;;4921230;29;20207;-79
2022/01/08 09:54:21;;;;;;;3.20;2.27;;;2.60;1.00;;;;;;4921175;29;20306;-79
2022/01/08 09:56:47;;;;;;;3.93;2.40;;;2.60;1.00;;;;;;4921965;29;20663;-79
2022/01/08 09:59:13;;;;;;;3.40;2.73;;;2.70;1.00;;;;;;4920305;29;20196;-78
2022/01/08 10:01:39;;;;;;;3.30;2.60;;;2.80;1.00;;;;;;4921971;29;20210;-79
2022/01/08 10:04:06;;;;;;;2.87;2.37;;;3.00;1.00;;;;;;4919476;29;20688;-79
2022/01/08 10:06:35;;;;;;;3.63;2.40;;;3.10;1.00;;;;;;4918641;29;20207;-79
2022/01/08 10:09:02;;;;;;;4.53;3.60;;;3.00;1.00;;;;;;4921878;29;20301;-78
2022/01/08 10:11:28;;;;;;;4.77;2.80;;;2.80;1.00;;;;;;4926934;29;20194;-79
2022/01/08 10:14:02;;;;;;;4.50;2.17;;;2.90;1.00;;;;;;4938420;29;20226;-78
2022/01/08 10:19:18;;;;;;;3.70;2.20;;;2.90;1.00;;;;;;4949245;29;20198;-79
2022/01/08 10:21:45;;;;;;;3.23;2.13;;;2.90;1.00;;;;;;4948574;29;20186;-78
2022/01/08 10:24:10;;;;;;;3.37;2.23;;;3.00;1.00;;;;;;4951846;29;20176;-78
2022/01/08 10:26:41;;;;;;;4.33;2.00;;;3.00;1.00;;;;;;4949346;29;20207;-78
2022/01/08 10:29:12;;;;;;;3.63;2.17;;;3.00;1.00;;;;;;4940467;29;20597;-78
2022/01/08 10:31:40;;;;;;;6.07;2.00;;;3.10;1.00;;;;;;4940578;29;20179;-77
2022/01/08 10:34:08;;;;;;;3.17;1.83;;;2.90;99.90;;;;;;4946546;29;20211;-79
2022/01/08 10:36:38;;;;;;;4.60;1.83;;;2.90;99.90;;;;;;4945941;29;20338;-79
2022/01/08 10:39:07;;;;;;;3.93;2.10;;;2.90;99.90;;;;;;4946445;29;20194;-79
2022/01/08 10:41:38;;;;;;;4.03;2.17;;;2.70;94.90;;;;;;4946727;29;20210;-79
2022/01/08 10:44:08;;;;;;;4.13;2.00;;;2.80;99.90;;;;;;4943866;29;20179;-78
2022/01/08 10:46:34;;;;;;;2.80;2.10;;;2.60;99.90;;;;;;4939474;29;20762;-81
2022/01/08 10:49:00;;;;;;;3.53;2.10;;;2.70;99.90;;;;;;4926801;29;20190;-79
2022/01/08 10:51:32;;;;;;;4.47;2.10;;;2.70;99.90;;;;;;4929266;29;20191;-79
2022/01/08 10:53:59;;;;;;;5.87;3.20;;;2.80;99.90;;;;;;4940512;29;20461;-80
2022/01/08 10:56:34;;;;;;;7.70;4.87;;;2.80;99.90;;;;;;4935126;29;20447;-79
2022/01/08 10:59:10;;;;;;;9.93;4.87;;;2.60;1.00;;;;;;4924532;29;20176;-78
2022/01/08 11:01:43;;;;;;;6.63;3.10;;;2.50;1.00;;;;;;4917890;29;20207;-78
2022/01/08 11:04:12;;;;;;;7.27;3.43;;;2.70;1.00;;;;;;4920121;29;20222;-78
2022/01/08 11:06:52;;;;;;;3.33;2.10;;;2.80;1.00;;;;;;4937468;29;20290;-79
2022/01/08 11:09:18;;;;;;;5.10;2.47;;;2.90;99.90;;;;;;4937306;29;20678;-78
2022/01/08 11:11:44;;;;;;;2.47;1.70;;;3.10;1.00;;;;;;4921968;29;20191;-80
2022/01/08 11:14:21;;;;;;;6.63;2.20;;;3.10;1.00;;;;;;4936750;29;20199;-80
2022/01/08 11:16:51;;;;;;;5.20;2.00;;;3.10;1.00;;;;;;4935439;29;20187;-79
2022/01/08 11:19:17;;;;;;;2.83;1.87;;;3.30;99.90;;;;;;4936717;29;20195;-80
2022/01/08 11:21:43;;;;;;;2.67;1.87;;;3.40;1.00;;;;;;4929643;29;20207;-79
2022/01/08 11:24:09;;;;;;;4.73;2.20;;;3.80;1.00;;;;;;4936273;29;20544;-79
2022/01/08 11:26:37;;;;;;;4.10;2.03;;;4.40;83.60;;;;;;4918973;29;20200;-80
2022/01/08 11:29:04;;;;;;;3.23;1.77;;;5.30;1.00;;;;;;4932885;29;20270;-80
2022/01/08 11:31:33;;;;;;;3.13;1.73;;;6.00;1.00;;;;;;4923298;29;20254;-82
2022/01/08 11:34:07;;;;;;;3.37;1.70;;;7.10;99.90;;;;;;4927562;29;20219;-83
2022/01/08 11:36:34;;;;;;;6.97;2.07;;;7.50;4.40;;;;;;4939305;29;20238;-80
2022/01/08 11:39:00;;;;;;;5.77;2.00;;;7.30;1.00;;;;;;4940716;29;20179;-80
2022/01/08 11:41:28;;;;;;;3.70;1.67;;;6.20;1.00;;;;;;4953939;28;20266;-79
2022/01/08 11:43:55;;;;;;;4.53;2.00;;;5.10;99.90;;;;;;4957372;28;20183;-80
2022/01/08 11:46:23;;;;;;;4.77;1.97;;;4.30;1.00;;;;;;4956155;29;20206;-81
2022/01/08 11:48:50;;;;;;;8.23;3.53;;;3.90;86.60;;;;;;4945874;29;20203;-79
2022/01/08 11:51:18;;;;;;;3.53;2.07;;;4.20;1.00;;;;;;4936910;29;20187;-80
2022/01/08 11:53:47;;;;;;;5.40;1.70;;;4.20;1.00;;;;;;4940870;29;20302;-79
2022/01/08 11:56:30;;;;;;;3.80;1.90;;;4.40;91.70;;;;;;4939017;29;20562;-79
2022/01/08 11:59:15;;;;;;;4.03;1.73;;;4.10;1.00;;;;;;4937795;29;20684;-79
2022/01/08 12:02:02;;;;;;;3.00;1.70;;;3.70;1.00;;;;;;4922543;29;20205;-78
2022/01/08 12:04:32;;;;;;;26.47;16.97;;;4.10;1.00;;;;;;4927270;29;20265;-79
2022/01/08 12:06:58;;;;;;;13.03;7.97;;;3.60;1.00;;;;;;4936693;29;20186;-78
2022/01/08 12:09:26;;;;;;;17.93;9.27;;;4.50;99.90;;;;;;4940634;29;20270;-79
2022/01/08 12:11:54;;;;;;;5.53;1.80;;;4.60;1.00;;;;;;4936792;29;20190;-78
2022/01/08 12:14:43;;;;;;;9.33;3.13;;;5.10;1.00;;;;;;4936232;29;20207;-79
2022/01/08 12:17:17;;;;;;;3.50;2.30;;;5.00;1.00;;;;;;4923275;29;20179;-79
2022/01/08 12:19:51;;;;;;;7.17;2.00;;;4.50;1.00;;;;;;4936946;29;20207;-79
2022/01/08 12:22:20;;;;;;;3.97;1.87;;;4.80;2.90;;;;;;4933918;29;20174;-80
2022/01/08 12:24:52;;;;;;;2.40;1.50;;;4.20;99.90;;;;;;4936576;29;20213;-79
2022/01/08 12:27:33;;;;;;;5.20;2.00;;;6.80;99.90;;;;;;4941050;29;20230;-79
2022/01/08 12:30:17;;;;;;;2.60;1.73;;;7.90;1.00;;;;;;4930277;29;20186;-80
2022/01/08 12:32:47;;;;;;;2.90;1.60;;;8.10;1.00;;;;;;4926116;29;20179;-78
2022/01/08 12:35:19;;;;;;;2.63;1.60;;;7.70;1.00;;;;;;4940150;29;20302;-79
2022/01/08 12:37:55;;;;;;;4.90;2.23;;;8.00;1.00;;;;;;4942276;29;20183;-80
2022/01/08 12:40:51;;;;;;;2.93;1.40;;;8.20;1.00;;;;;;4941350;29;20197;-78
2022/01/08 12:43:31;;;;;;;1.93;1.50;;;8.50;1.00;;;;;;4940478;29;20183;-79
2022/01/08 12:46:25;;;;;;;3.63;2.03;;;7.10;1.00;;;;;;4940235;29;20232;-79
2022/01/08 12:49:13;;;;;;;3.73;1.70;;;5.80;99.90;;;;;;4931399;29;20625;-78
2022/01/08 12:52:02;;;;;;;4.27;2.30;;;4.70;1.00;;;;;;4926184;29;20183;-79
2022/01/08 12:54:28;;;;;;;4.40;1.93;;;4.20;1.00;;;;;;4932446;29;20726;-78
2022/01/08 12:56:55;;;;;;;3.23;2.03;;;3.80;1.00;;;;;;4937612;29;20190;-79
2022/01/08 12:59:31;;;;;;;4.10;2.00;;;3.80;99.90;;;;;;4935989;29;20187;-80
2022/01/08 13:01:57;;;;;;;2.73;1.80;;;4.50;1.00;;;;;;4936554;29;20241;-78
2022/01/08 13:04:23;;;;;;;4.03;1.83;;;5.80;99.90;;;;;;4936710;29;20191;-79
2022/01/08 13:06:49;;;;;;;4.07;2.30;;;6.10;99.90;;;;;;4938518;29;20217;-79
2022/01/08 13:09:15;;;;;;;2.13;1.63;;;6.30;99.90;;;;;;4935878;29;20194;-80
2022/01/08 13:11:43;;;;;;;2.67;1.80;;;6.20;99.90;;;;;;4923919;29;20179;-78
2022/01/08 13:14:16;;;;;;;2.30;2.07;;;6.00;90.40;;;;;;4936469;29;20765;-79
2022/01/08 13:16:47;;;;;;;2.33;1.87;;;6.00;99.90;;;;;;4941365;29;20199;-78
2022/01/08 13:19:15;;;;;;;3.93;2.00;;;5.40;99.90;;;;;;4942478;29;20664;-79
2022/01/08 13:21:43;;;;;;;3.37;2.00;;;4.50;1.00;;;;;;4938019;29;20180;-78
2022/01/08 13:24:18;;;;;;;4.37;2.30;;;4.40;99.90;;;;;;4933547;29;20672;-79
2022/01/08 13:26:57;;;;;;;3.83;2.30;;;4.10;1.00;;;;;;4942929;29;20213;-79